sensor_id;sensor_type;location;lat;lon;timestamp;pressure;altitude;pressure_sealevel;temperature;humidity
19811;BME280;10065;49.632;8.346;2023-03-31T00:00:52;99830.50;;;13.45;73.79
19811;BME280;10065;49.632;8.346;2023-03-31T00:03:23;99837.69;;;13.45;73.72
19811;BME280;10065;49.632;8.346;2023-03-31T00:05:54;99829.47;;;13.46;73.88
19811;BME280;10065;49.632;8.346;2023-03-31T00:08:23;99833.34;;;13.44;73.99
19811;BME280;10065;49.632;8.346;2023-03-31T00:10:57;99833.34;;;13.44;74.01
19811;BME280;10065;49.632;8.346;2023-03-31T00:13:27;99822.06;;;13.42;74.22
19811;BME280;10065;49.632;8.346;2023-03-31T00:15:58;99824.16;;;13.46;73.84
19811;BME280;10065;49.632;8.346;2023-03-31T00:18:27;99819.84;;;13.60;73.48
19811;BME280;10065;49.632;8.346;2023-03-31T00:21:05;99813.69;;;13.60;73.31
19811;BME280;10065;49.632;8.346;2023-03-31T00:23:33;99805.41;;;13.54;73.47
19811;BME280;10065;49.632;8.346;2023-03-31T00:26:01;99801.97;;;13.54;73.58
19811;BME280;10065;49.632;8.346;2023-03-31T00:28:31;99799.47;;;13.52;73.47
19811;BME280;10065;49.632;8.346;2023-03-31T00:31:00;99797.81;;;13.51;73.34
19811;BME280;10065;49.632;8.346;2023-03-31T00:33:28;99794.16;;;13.52;73.21
19811;BME280;10065;49.632;8.346;2023-03-31T00:35:56;99785.50;;;13.50;73.11
19811;BME280;10065;49.632;8.346;2023-03-31T00:38:27;99774.03;;;13.50;72.78
19811;BME280;10065;49.632;8.346;2023-03-31T00:40:56;99777.34;;;13.52;73.05
19811;BME280;10065;49.632;8.346;2023-03-31T00:43:28;99769.34;;;13.52;73.14
19811;BME280;10065;49.632;8.346;2023-03-31T00:46:04;99774.38;;;13.47;73.52
19811;BME280;10065;49.632;8.346;2023-03-31T00:48:35;99769.06;;;13.47;73.45
19811;BME280;10065;49.632;8.346;2023-03-31T00:51:05;99759.63;;;13.44;73.53
19811;BME280;10065;49.632;8.346;2023-03-31T00:53:34;99751.41;;;13.46;73.44
19811;BME280;10065;49.632;8.346;2023-03-31T00:56:06;99743.25;;;13.47;73.26
19811;BME280;10065;49.632;8.346;2023-03-31T00:58:35;99751.53;;;13.52;72.89
19811;BME280;10065;49.632;8.346;2023-03-31T01:01:13;99747.38;;;13.50;73.05
19811;BME280;10065;49.632;8.346;2023-03-31T01:03:43;99748.69;;;13.54;72.53
19811;BME280;10065;49.632;8.346;2023-03-31T01:06:13;99742.13;;;13.56;71.19
19811;BME280;10065;49.632;8.346;2023-03-31T01:08:46;99734.88;;;13.65;69.75
19811;BME280;10065;49.632;8.346;2023-03-31T01:11:18;99722.47;;;13.72;68.70
19811;BME280;10065;49.632;8.346;2023-03-31T01:13:47;99711.72;;;13.80;67.20
19811;BME280;10065;49.632;8.346;2023-03-31T01:16:18;99712.63;;;13.87;66.66
19811;BME280;10065;49.632;8.346;2023-03-31T01:18:46;99708.00;;;13.96;66.13
19811;BME280;10065;49.632;8.346;2023-03-31T01:27:44;99699.81;;;14.19;64.50
19811;BME280;10065;49.632;8.346;2023-03-31T01:36:41;99685.22;;;14.36;63.42
19811;BME280;10065;49.632;8.346;2023-03-31T01:42:16;99684.06;;;14.39;63.40
19811;BME280;10065;49.632;8.346;2023-03-31T01:44:56;99679.88;;;14.36;63.90
19811;BME280;10065;49.632;8.346;2023-03-31T01:47:30;99666.38;;;14.38;63.77
19811;BME280;10065;49.632;8.346;2023-03-31T01:50:10;99664.72;;;14.37;63.13
19811;BME280;10065;49.632;8.346;2023-03-31T01:52:46;99656.66;;;14.30;62.82
19811;BME280;10065;49.632;8.346;2023-03-31T01:55:19;99657.31;;;14.32;62.60
19811;BME280;10065;49.632;8.346;2023-03-31T01:57:52;99649.91;;;14.34;62.29
19811;BME280;10065;49.632;8.346;2023-03-31T02:00:24;99658.56;;;14.36;62.26
19811;BME280;10065;49.632;8.346;2023-03-31T02:02:57;99641.84;;;14.42;61.93
19811;BME280;10065;49.632;8.346;2023-03-31T02:05:31;99638.13;;;14.43;62.07
19811;BME280;10065;49.632;8.346;2023-03-31T02:08:05;99642.69;;;14.49;61.42
19811;BME280;10065;49.632;8.346;2023-03-31T02:10:35;99636.34;;;14.50;61.28
19811;BME280;10065;49.632;8.346;2023-03-31T02:13:05;99635.72;;;14.48;61.63
19811;BME280;10065;49.632;8.346;2023-03-31T02:15:37;99634.06;;;14.47;61.22
19811;BME280;10065;49.632;8.346;2023-03-31T02:18:08;99631.59;;;14.46;61.69
19811;BME280;10065;49.632;8.346;2023-03-31T02:20:38;99623.19;;;14.49;61.45
19811;BME280;10065;49.632;8.346;2023-03-31T02:23:09;99621.38;;;14.49;61.70
19811;BME280;10065;49.632;8.346;2023-03-31T02:25:43;99622.19;;;14.50;61.68
19811;BME280;10065;49.632;8.346;2023-03-31T02:28:17;99614.56;;;14.47;61.71
19811;BME280;10065;49.632;8.346;2023-03-31T02:30:51;99603.25;;;14.45;61.98
19811;BME280;10065;49.632;8.346;2023-03-31T02:33:21;99600.16;;;14.41;62.17
19811;BME280;10065;49.632;8.346;2023-03-31T02:35:48;99602.84;;;14.41;62.31
19811;BME280;10065;49.632;8.346;2023-03-31T02:38:17;99605.22;;;14.36;62.47
19811;BME280;10065;49.632;8.346;2023-03-31T02:40:44;99618.31;;;14.31;62.13
19811;BME280;10065;49.632;8.346;2023-03-31T02:43:13;99603.31;;;14.30;62.17
19811;BME280;10065;49.632;8.346;2023-03-31T02:45:43;99598.44;;;14.34;62.30
19811;BME280;10065;49.632;8.346;2023-03-31T02:48:16;99587.69;;;14.27;62.54
19811;BME280;10065;49.632;8.346;2023-03-31T02:51:13;99573.53;;;14.26;62.43
19811;BME280;10065;49.632;8.346;2023-03-31T02:53:57;99553.19;;;14.19;62.59
19811;BME280;10065;49.632;8.346;2023-03-31T02:56:42;99545.81;;;14.21;62.70
19811;BME280;10065;49.632;8.346;2023-03-31T02:59:23;99543.97;;;14.21;62.69
19811;BME280;10065;49.632;8.346;2023-03-31T03:02:09;99529.19;;;14.19;63.03
19811;BME280;10065;49.632;8.346;2023-03-31T03:04:59;99513.81;;;14.21;63.17
19811;BME280;10065;49.632;8.346;2023-03-31T03:07:35;99523.47;;;14.22;62.97
19811;BME280;10065;49.632;8.346;2023-03-31T03:10:10;99507.47;;;14.22;63.30
19811;BME280;10065;49.632;8.346;2023-03-31T03:12:44;99499.84;;;14.19;63.21
19811;BME280;10065;49.632;8.346;2023-03-31T03:15:20;99493.75;;;14.25;63.29
19811;BME280;10065;49.632;8.346;2023-03-31T03:17:51;99500.97;;;14.31;63.08
19811;BME280;10065;49.632;8.346;2023-03-31T03:20:21;99488.81;;;14.22;63.50
19811;BME280;10065;49.632;8.346;2023-03-31T03:22:49;99490.63;;;14.15;64.13
19811;BME280;10065;49.632;8.346;2023-03-31T03:25:17;99474.41;;;14.16;64.32
19811;BME280;10065;49.632;8.346;2023-03-31T03:27:45;99452.69;;;14.19;63.87
19811;BME280;10065;49.632;8.346;2023-03-31T03:30:14;99440.56;;;14.17;64.33
19811;BME280;10065;49.632;8.346;2023-03-31T03:32:43;99435.16;;;14.04;64.54
19811;BME280;10065;49.632;8.346;2023-03-31T03:35:12;99427.75;;;13.99;64.89
19811;BME280;10065;49.632;8.346;2023-03-31T03:37:39;99443.69;;;13.92;65.48
19811;BME280;10065;49.632;8.346;2023-03-31T03:40:08;99425.31;;;13.98;65.16
19811;BME280;10065;49.632;8.346;2023-03-31T03:42:36;99426.53;;;14.02;64.91
19811;BME280;10065;49.632;8.346;2023-03-31T03:45:05;99401.06;;;13.92;65.24
19811;BME280;10065;49.632;8.346;2023-03-31T03:47:33;99390.81;;;13.89;65.35
19811;BME280;10065;49.632;8.346;2023-03-31T03:50:04;99383.34;;;13.78;66.13
19811;BME280;10065;49.632;8.346;2023-03-31T03:52:31;99380.50;;;13.80;66.28
19811;BME280;10065;49.632;8.346;2023-03-31T03:54:59;99385.53;;;13.68;66.74
19811;BME280;10065;49.632;8.346;2023-03-31T03:57:28;99368.91;;;13.66;66.75
19811;BME280;10065;49.632;8.346;2023-03-31T03:59:56;99381.81;;;13.63;66.87
19811;BME280;10065;49.632;8.346;2023-03-31T04:02:23;99388.91;;;13.55;67.22
19811;BME280;10065;49.632;8.346;2023-03-31T04:04:54;99404.47;;;13.52;67.58
19811;BME280;10065;49.632;8.346;2023-03-31T04:07:23;99396.72;;;13.57;67.39
19811;BME280;10065;49.632;8.346;2023-03-31T04:09:50;99398.38;;;13.58;67.38
19811;BME280;10065;49.632;8.346;2023-03-31T04:12:18;99399.38;;;13.57;67.53
19811;BME280;10065;49.632;8.346;2023-03-31T04:14:46;99392.59;;;13.54;67.79
19811;BME280;10065;49.632;8.346;2023-03-31T04:17:13;99379.06;;;13.56;67.87
19811;BME280;10065;49.632;8.346;2023-03-31T04:19:41;99369.59;;;13.47;68.61
19811;BME280;10065;49.632;8.346;2023-03-31T04:22:09;99370.81;;;13.44;69.11
19811;BME280;10065;49.632;8.346;2023-03-31T04:24:41;99365.88;;;13.41;69.27
19811;BME280;10065;49.632;8.346;2023-03-31T04:27:11;99354.22;;;13.42;69.61
19811;BME280;10065;49.632;8.346;2023-03-31T04:29:42;99341.31;;;13.46;69.20
19811;BME280;10065;49.632;8.346;2023-03-31T04:32:20;99343.38;;;13.44;69.41
19811;BME280;10065;49.632;8.346;2023-03-31T04:34:48;99345.00;;;13.45;69.39
19811;BME280;10065;49.632;8.346;2023-03-31T04:37:16;99347.09;;;13.49;69.12
19811;BME280;10065;49.632;8.346;2023-03-31T04:39:45;99339.53;;;13.53;69.24
19811;BME280;10065;49.632;8.346;2023-03-31T04:42:16;99343.47;;;13.64;69.29
19811;BME280;10065;49.632;8.346;2023-03-31T04:44:43;99339.31;;;13.54;70.45
19811;BME280;10065;49.632;8.346;2023-03-31T04:47:11;99339.28;;;13.48;71.31
19811;BME280;10065;49.632;8.346;2023-03-31T04:49:39;99329.63;;;13.47;71.52
19811;BME280;10065;49.632;8.346;2023-03-31T04:52:06;99332.91;;;13.42;72.42
19811;BME280;10065;49.632;8.346;2023-03-31T04:54:34;99333.53;;;13.44;72.84
19811;BME280;10065;49.632;8.346;2023-03-31T04:57:03;99338.78;;;13.38;73.64
19811;BME280;10065;49.632;8.346;2023-03-31T04:59:31;99329.97;;;13.37;74.26
19811;BME280;10065;49.632;8.346;2023-03-31T05:01:59;99333.09;;;13.41;73.88
19811;BME280;10065;49.632;8.346;2023-03-31T05:04:26;99325.25;;;13.33;73.68
19811;BME280;10065;49.632;8.346;2023-03-31T05:06:54;99318.41;;;13.24;74.12
19811;BME280;10065;49.632;8.346;2023-03-31T05:09:22;99324.34;;;13.19;74.64
19811;BME280;10065;49.632;8.346;2023-03-31T05:11:49;99321.47;;;13.21;74.49
19811;BME280;10065;49.632;8.346;2023-03-31T05:14:18;99317.78;;;13.22;74.18
19811;BME280;10065;49.632;8.346;2023-03-31T05:16:47;99314.56;;;13.26;74.04
19811;BME280;10065;49.632;8.346;2023-03-31T05:19:14;99305.09;;;13.24;74.39
19811;BME280;10065;49.632;8.346;2023-03-31T05:21:43;99307.59;;;13.25;74.14
19811;BME280;10065;49.632;8.346;2023-03-31T05:24:12;99293.97;;;13.13;75.37
19811;BME280;10065;49.632;8.346;2023-03-31T05:26:40;99289.41;;;13.07;76.45
19811;BME280;10065;49.632;8.346;2023-03-31T05:29:12;99290.19;;;13.01;77.93
19811;BME280;10065;49.632;8.346;2023-03-31T05:31:43;99265.59;;;12.99;78.47
19811;BME280;10065;49.632;8.346;2023-03-31T05:34:11;99268.75;;;12.88;79.21
19811;BME280;10065;49.632;8.346;2023-03-31T05:36:39;99267.88;;;12.81;80.18
19811;BME280;10065;49.632;8.346;2023-03-31T05:39:06;99252.56;;;12.83;79.96
19811;BME280;10065;49.632;8.346;2023-03-31T05:41:34;99252.94;;;12.80;80.49
19811;BME280;10065;49.632;8.346;2023-03-31T05:44:02;99241.84;;;12.76;80.67
19811;BME280;10065;49.632;8.346;2023-03-31T05:46:30;99231.94;;;12.64;81.79
19811;BME280;10065;49.632;8.346;2023-03-31T05:48:59;99225.47;;;12.52;82.25
19811;BME280;10065;49.632;8.346;2023-03-31T05:51:27;99226.88;;;12.48;83.01
19811;BME280;10065;49.632;8.346;2023-03-31T05:53:55;99226.25;;;12.46;83.06
19811;BME280;10065;49.632;8.346;2023-03-31T05:56:23;99222.56;;;12.47;83.68
19811;BME280;10065;49.632;8.346;2023-03-31T05:58:53;99214.47;;;12.33;85.98
19811;BME280;10065;49.632;8.346;2023-03-31T06:01:20;99194.28;;;12.39;86.33
19811;BME280;10065;49.632;8.346;2023-03-31T06:03:49;99169.47;;;12.32;87.31
19811;BME280;10065;49.632;8.346;2023-03-31T06:06:18;99153.72;;;12.30;87.13
19811;BME280;10065;49.632;8.346;2023-03-31T06:08:47;99146.63;;;12.16;88.09
19811;BME280;10065;49.632;8.346;2023-03-31T06:11:16;99138.78;;;12.08;88.96
19811;BME280;10065;49.632;8.346;2023-03-31T06:13:45;99146.94;;;12.06;89.10
19811;BME280;10065;49.632;8.346;2023-03-31T06:16:13;99143.84;;;12.03;89.90
19811;BME280;10065;49.632;8.346;2023-03-31T06:18:43;99132.28;;;12.11;89.64
19811;BME280;10065;49.632;8.346;2023-03-31T06:21:12;99109.81;;;12.13;89.57
19811;BME280;10065;49.632;8.346;2023-03-31T06:23:43;99118.16;;;12.10;89.32
19811;BME280;10065;49.632;8.346;2023-03-31T06:26:13;99117.16;;;12.11;89.56
19811;BME280;10065;49.632;8.346;2023-03-31T06:28:41;99118.53;;;12.07;89.80
19811;BME280;10065;49.632;8.346;2023-03-31T06:31:10;99099.13;;;12.06;90.00
19811;BME280;10065;49.632;8.346;2023-03-31T06:33:39;99103.25;;;12.09;90.22
19811;BME280;10065;49.632;8.346;2023-03-31T06:36:07;99100.81;;;12.14;90.01
19811;BME280;10065;49.632;8.346;2023-03-31T06:38:36;99107.78;;;12.15;90.54
19811;BME280;10065;49.632;8.346;2023-03-31T06:41:07;99105.75;;;12.17;90.59
19811;BME280;10065;49.632;8.346;2023-03-31T06:43:35;99114.00;;;12.22;89.86
19811;BME280;10065;49.632;8.346;2023-03-31T06:46:04;99098.44;;;12.19;90.09
19811;BME280;10065;49.632;8.346;2023-03-31T06:48:33;99096.41;;;12.21;90.14
19811;BME280;10065;49.632;8.346;2023-03-31T06:51:03;99104.63;;;12.26;89.74
19811;BME280;10065;49.632;8.346;2023-03-31T06:53:31;99093.19;;;12.32;90.61
19811;BME280;10065;49.632;8.346;2023-03-31T06:55:59;99102.19;;;12.31;90.72
19811;BME280;10065;49.632;8.346;2023-03-31T06:58:28;99095.69;;;12.34;89.55
19811;BME280;10065;49.632;8.346;2023-03-31T07:00:57;99094.09;;;12.39;89.32
19811;BME280;10065;49.632;8.346;2023-03-31T07:03:25;99098.50;;;12.32;89.70
19811;BME280;10065;49.632;8.346;2023-03-31T07:05:55;99095.13;;;12.38;89.53
19811;BME280;10065;49.632;8.346;2023-03-31T07:08:23;99102.31;;;12.44;89.57
19811;BME280;10065;49.632;8.346;2023-03-31T07:10:53;99098.44;;;12.47;89.81
19811;BME280;10065;49.632;8.346;2023-03-31T07:13:23;99094.56;;;12.50;90.10
19811;BME280;10065;49.632;8.346;2023-03-31T07:15:53;99092.94;;;12.49;90.66
19811;BME280;10065;49.632;8.346;2023-03-31T07:18:22;99090.41;;;12.40;91.59
19811;BME280;10065;49.632;8.346;2023-03-31T07:20:51;99104.59;;;12.48;91.07
19811;BME280;10065;49.632;8.346;2023-03-31T07:23:19;99108.41;;;12.38;91.75
19811;BME280;10065;49.632;8.346;2023-03-31T07:25:47;99092.88;;;12.42;91.13
19811;BME280;10065;49.632;8.346;2023-03-31T07:28:15;99104.72;;;12.39;91.57
19811;BME280;10065;49.632;8.346;2023-03-31T07:30:43;99104.13;;;12.44;91.47
19811;BME280;10065;49.632;8.346;2023-03-31T07:33:15;99150.84;;;12.53;91.31
19811;BME280;10065;49.632;8.346;2023-03-31T07:35:42;99179.13;;;12.61;91.34
19811;BME280;10065;49.632;8.346;2023-03-31T07:38:13;99151.75;;;12.67;91.46
19811;BME280;10065;49.632;8.346;2023-03-31T07:40:42;99182.22;;;12.64;93.64
19811;BME280;10065;49.632;8.346;2023-03-31T07:43:12;99171.25;;;12.74;94.17
19811;BME280;10065;49.632;8.346;2023-03-31T07:45:40;99161.63;;;12.73;91.79
19811;BME280;10065;49.632;8.346;2023-03-31T07:48:10;99136.53;;;12.82;90.88
19811;BME280;10065;49.632;8.346;2023-03-31T07:50:39;99125.97;;;12.95;89.13
19811;BME280;10065;49.632;8.346;2023-03-31T07:53:07;99135.38;;;12.91;88.36
19811;BME280;10065;49.632;8.346;2023-03-31T07:55:35;99152.56;;;12.95;86.51
19811;BME280;10065;49.632;8.346;2023-03-31T07:58:03;99127.22;;;12.99;84.65
19811;BME280;10065;49.632;8.346;2023-03-31T08:00:30;99132.56;;;13.06;84.52
19811;BME280;10065;49.632;8.346;2023-03-31T08:02:58;99133.03;;;13.09;83.92
19811;BME280;10065;49.632;8.346;2023-03-31T08:05:26;99119.31;;;13.12;83.97
19811;BME280;10065;49.632;8.346;2023-03-31T08:07:58;99133.03;;;13.09;84.69
19811;BME280;10065;49.632;8.346;2023-03-31T08:10:27;99130.97;;;13.11;86.45
19811;BME280;10065;49.632;8.346;2023-03-31T08:12:54;99123.25;;;13.16;86.22
19811;BME280;10065;49.632;8.346;2023-03-31T08:15:22;99118.69;;;13.10;87.19
19811;BME280;10065;49.632;8.346;2023-03-31T08:17:51;99132.38;;;13.07;88.47
19811;BME280;10065;49.632;8.346;2023-03-31T08:20:18;99132.78;;;13.04;89.45
19811;BME280;10065;49.632;8.346;2023-03-31T08:22:46;99135.06;;;13.07;90.99
19811;BME280;10065;49.632;8.346;2023-03-31T08:25:17;99129.13;;;13.12;90.88
19811;BME280;10065;49.632;8.346;2023-03-31T08:27:46;99118.69;;;13.10;91.37
19811;BME280;10065;49.632;8.346;2023-03-31T08:30:17;99114.25;;;13.17;91.03
19811;BME280;10065;49.632;8.346;2023-03-31T08:32:45;99125.31;;;13.21;90.39
19811;BME280;10065;49.632;8.346;2023-03-31T08:35:13;99113.25;;;13.18;89.04
19811;BME280;10065;49.632;8.346;2023-03-31T08:37:41;99107.75;;;13.27;87.76
19811;BME280;10065;49.632;8.346;2023-03-31T08:40:12;99096.88;;;13.28;85.42
19811;BME280;10065;49.632;8.346;2023-03-31T08:42:47;99093.03;;;13.37;83.52
19811;BME280;10065;49.632;8.346;2023-03-31T08:45:20;99097.16;;;13.46;82.68
19811;BME280;10065;49.632;8.346;2023-03-31T08:47:51;99100.91;;;13.65;82.25
19811;BME280;10065;49.632;8.346;2023-03-31T08:50:23;99112.06;;;14.02;80.21
19811;BME280;10065;49.632;8.346;2023-03-31T08:52:56;99109.81;;;14.18;78.84
19811;BME280;10065;49.632;8.346;2023-03-31T08:55:29;99086.63;;;14.25;78.13
19811;BME280;10065;49.632;8.346;2023-03-31T08:58:08;99095.25;;;14.27;77.72
19811;BME280;10065;49.632;8.346;2023-03-31T09:00:44;99100.38;;;14.29;77.91
19811;BME280;10065;49.632;8.346;2023-03-31T09:03:22;99096.50;;;14.38;77.39
19811;BME280;10065;49.632;8.346;2023-03-31T09:05:57;99105.94;;;14.60;76.49
19811;BME280;10065;49.632;8.346;2023-03-31T09:08:34;99098.97;;;14.59;75.89
19811;BME280;10065;49.632;8.346;2023-03-31T09:11:18;99099.38;;;14.43;75.34
19811;BME280;10065;49.632;8.346;2023-03-31T09:14:11;99097.94;;;14.21;77.21
19811;BME280;10065;49.632;8.346;2023-03-31T09:16:46;99094.22;;;13.96;79.14
19811;BME280;10065;49.632;8.346;2023-03-31T09:19:23;99108.94;;;13.78;80.72
19811;BME280;10065;49.632;8.346;2023-03-31T09:21:58;99115.66;;;13.68;81.34
19811;BME280;10065;49.632;8.346;2023-03-31T09:24:29;99114.00;;;13.53;80.45
19811;BME280;10065;49.632;8.346;2023-03-31T09:27:00;99130.34;;;13.44;76.96
19811;BME280;10065;49.632;8.346;2023-03-31T09:29:36;99134.41;;;13.33;74.20
19811;BME280;10065;49.632;8.346;2023-03-31T09:32:13;99155.13;;;13.10;75.73
19811;BME280;10065;49.632;8.346;2023-03-31T09:34:42;99131.91;;;12.97;75.83
19811;BME280;10065;49.632;8.346;2023-03-31T09:37:12;99135.47;;;12.76;75.52
19811;BME280;10065;49.632;8.346;2023-03-31T09:39:40;99130.28;;;12.68;76.48
19811;BME280;10065;49.632;8.346;2023-03-31T09:42:09;99135.19;;;12.65;76.29
19811;BME280;10065;49.632;8.346;2023-03-31T09:44:40;99112.47;;;12.62;75.24
19811;BME280;10065;49.632;8.346;2023-03-31T09:47:12;99082.56;;;12.60;74.89
19811;BME280;10065;49.632;8.346;2023-03-31T09:49:44;99075.91;;;12.71;74.35
19811;BME280;10065;49.632;8.346;2023-03-31T09:52:26;99081.66;;;12.74;74.31
19811;BME280;10065;49.632;8.346;2023-03-31T09:54:57;99064.09;;;12.80;74.37
19811;BME280;10065;49.632;8.346;2023-03-31T09:57:28;99055.13;;;12.94;74.27
19811;BME280;10065;49.632;8.346;2023-03-31T10:00:13;99055.19;;;13.01;74.88
19811;BME280;10065;49.632;8.346;2023-03-31T10:02:42;99034.75;;;13.08;75.64
19811;BME280;10065;49.632;8.346;2023-03-31T10:05:21;99045.44;;;13.14;76.52
19811;BME280;10065;49.632;8.346;2023-03-31T10:08:23;99026.47;;;13.31;75.75
19811;BME280;10065;49.632;8.346;2023-03-31T10:10:53;99037.44;;;13.88;74.97
19811;BME280;10065;49.632;8.346;2023-03-31T10:13:23;99022.72;;;15.41;68.17
19811;BME280;10065;49.632;8.346;2023-03-31T10:15:52;99013.03;;;17.97;61.44
19811;BME280;10065;49.632;8.346;2023-03-31T10:18:31;99010.81;;;20.01;52.58
19811;BME280;10065;49.632;8.346;2023-03-31T10:21:02;99006.38;;;20.61;49.12
19811;BME280;10065;49.632;8.346;2023-03-31T10:23:33;99002.47;;;20.91;48.29
19811;BME280;10065;49.632;8.346;2023-03-31T10:26:02;99013.72;;;20.88;47.85
19811;BME280;10065;49.632;8.346;2023-03-31T10:28:33;99026.13;;;19.83;50.10
19811;BME280;10065;49.632;8.346;2023-03-31T10:31:02;99007.03;;;19.00;52.80
19811;BME280;10065;49.632;8.346;2023-03-31T10:33:32;99012.03;;;18.45;54.76
19811;BME280;10065;49.632;8.346;2023-03-31T10:36:06;99002.09;;;17.27;57.30
19811;BME280;10065;49.632;8.346;2023-03-31T10:38:37;99013.34;;;16.44;60.39
19811;BME280;10065;49.632;8.346;2023-03-31T10:41:11;99003.03;;;15.98;62.22
19811;BME280;10065;49.632;8.346;2023-03-31T10:43:41;99002.28;;;15.91;62.80
19811;BME280;10065;49.632;8.346;2023-03-31T10:46:11;99006.53;;;15.99;62.74
19811;BME280;10065;49.632;8.346;2023-03-31T10:48:40;99009.09;;;16.12;62.64
19811;BME280;10065;49.632;8.346;2023-03-31T10:51:15;99006.63;;;16.10;63.13
19811;BME280;10065;49.632;8.346;2023-03-31T10:53:46;99009.03;;;16.18;63.11
19811;BME280;10065;49.632;8.346;2023-03-31T10:56:30;98995.25;;;16.40;63.52
19811;BME280;10065;49.632;8.346;2023-03-31T10:59:13;98993.63;;;16.57;63.11
19811;BME280;10065;49.632;8.346;2023-03-31T11:01:59;98987.06;;;16.78;62.12
19811;BME280;10065;49.632;8.346;2023-03-31T11:04:41;98972.22;;;16.57;62.46
19811;BME280;10065;49.632;8.346;2023-03-31T11:07:19;98973.31;;;16.31;62.49
19811;BME280;10065;49.632;8.346;2023-03-31T11:10:08;98977.41;;;16.15;62.44
19811;BME280;10065;49.632;8.346;2023-03-31T11:12:41;98981.13;;;15.90;63.05
19811;BME280;10065;49.632;8.346;2023-03-31T11:15:18;98974.88;;;15.71;63.10
19811;BME280;10065;49.632;8.346;2023-03-31T11:17:57;98965.94;;;15.59;64.23
19811;BME280;10065;49.632;8.346;2023-03-31T11:20:33;98966.00;;;15.46;63.91
19811;BME280;10065;49.632;8.346;2023-03-31T11:23:09;98976.25;;;15.55;62.69
19811;BME280;10065;49.632;8.346;2023-03-31T11:25:48;98974.28;;;15.94;61.29
19811;BME280;10065;49.632;8.346;2023-03-31T11:28:26;98967.09;;;16.37;59.98
19811;BME280;10065;49.632;8.346;2023-03-31T11:31:08;98970.69;;;16.68;58.73
19811;BME280;10065;49.632;8.346;2023-03-31T11:36:44;98954.38;;;18.24;54.49
19811;BME280;10065;49.632;8.346;2023-03-31T11:39:26;98959.09;;;19.20;51.17
19811;BME280;10065;49.632;8.346;2023-03-31T11:42:00;98954.97;;;20.08;48.77
19811;BME280;10065;49.632;8.346;2023-03-31T11:44:36;98965.22;;;20.44;47.71
19811;BME280;10065;49.632;8.346;2023-03-31T11:47:08;98969.81;;;21.09;46.21
19811;BME280;10065;49.632;8.346;2023-03-31T11:49:38;98966.28;;;21.30;44.93
19811;BME280;10065;49.632;8.346;2023-03-31T11:52:13;98974.69;;;20.69;45.70
19811;BME280;10065;49.632;8.346;2023-03-31T11:54:48;98976.66;;;19.84;47.85
19811;BME280;10065;49.632;8.346;2023-03-31T11:57:22;98961.16;;;19.01;50.31
19811;BME280;10065;49.632;8.346;2023-03-31T11:59:55;98955.56;;;18.04;53.54
19811;BME280;10065;49.632;8.346;2023-03-31T12:02:32;98955.56;;;17.51;55.70
19811;BME280;10065;49.632;8.346;2023-03-31T12:05:06;98956.00;;;17.66;55.43
19811;BME280;10065;49.632;8.346;2023-03-31T12:07:40;98944.22;;;17.67;55.75
19811;BME280;10065;49.632;8.346;2023-03-31T12:10:16;98940.97;;;17.36;56.20
19811;BME280;10065;49.632;8.346;2023-03-31T12:12:50;98933.59;;;17.19;56.19
19811;BME280;10065;49.632;8.346;2023-03-31T12:15:23;98928.00;;;17.21;55.60
19811;BME280;10065;49.632;8.346;2023-03-31T12:17:56;98917.72;;;17.59;55.29
19811;BME280;10065;49.632;8.346;2023-03-31T12:20:30;98918.25;;;18.26;51.56
19811;BME280;10065;49.632;8.346;2023-03-31T12:23:00;98923.22;;;18.58;50.92
19811;BME280;10065;49.632;8.346;2023-03-31T12:25:39;98920.19;;;19.23;48.71
19811;BME280;10065;49.632;8.346;2023-03-31T12:28:11;98912.53;;;19.14;48.24
19811;BME280;10065;49.632;8.346;2023-03-31T12:30:40;98897.72;;;19.45;47.45
19811;BME280;10065;49.632;8.346;2023-03-31T12:33:15;98905.78;;;19.00;48.39
19811;BME280;10065;49.632;8.346;2023-03-31T12:35:55;98900.56;;;18.65;48.68
19811;BME280;10065;49.632;8.346;2023-03-31T12:38:47;98906.47;;;18.27;50.35
19811;BME280;10065;49.632;8.346;2023-03-31T12:41:22;98905.97;;;18.30;50.58
19811;BME280;10065;49.632;8.346;2023-03-31T12:46:56;98910.53;;;17.72;50.70
19811;BME280;10065;49.632;8.346;2023-03-31T12:49:39;98913.84;;;17.32;51.54
19811;BME280;10065;49.632;8.346;2023-03-31T12:52:13;98906.44;;;17.16;51.21
19811;BME280;10065;49.632;8.346;2023-03-31T12:54:59;98906.75;;;17.08;50.86
19811;BME280;10065;49.632;8.346;2023-03-31T12:57:28;98921.06;;;17.02;51.60
19811;BME280;10065;49.632;8.346;2023-03-31T13:00:19;98923.16;;;16.81;52.01
19811;BME280;10065;49.632;8.346;2023-03-31T13:02:48;98925.28;;;16.79;52.44
19811;BME280;10065;49.632;8.346;2023-03-31T13:05:44;98902.88;;;16.74;52.83
19811;BME280;10065;49.632;8.346;2023-03-31T13:08:50;98925.44;;;16.66;51.84
19811;BME280;10065;49.632;8.346;2023-03-31T13:11:19;98916.03;;;16.39;53.03
19811;BME280;10065;49.632;8.346;2023-03-31T13:13:58;98924.78;;;16.28;54.00
19811;BME280;10065;49.632;8.346;2023-03-31T13:16:28;98917.34;;;16.11;54.83
19811;BME280;10065;49.632;8.346;2023-03-31T13:18:56;98947.75;;;15.92;57.08
19811;BME280;10065;49.632;8.346;2023-03-31T13:21:24;98925.59;;;15.92;57.09
19811;BME280;10065;49.632;8.346;2023-03-31T13:23:58;98927.81;;;15.95;58.06
19811;BME280;10065;49.632;8.346;2023-03-31T13:26:37;98925.34;;;15.93;58.20
19811;BME280;10065;49.632;8.346;2023-03-31T13:29:20;98939.00;;;15.85;57.99
19811;BME280;10065;49.632;8.346;2023-03-31T13:32:20;98944.94;;;15.87;59.10
19811;BME280;10065;49.632;8.346;2023-03-31T13:34:53;98927.72;;;16.01;60.10
19811;BME280;10065;49.632;8.346;2023-03-31T13:40:37;98920.63;;;16.13;58.97
19811;BME280;10065;49.632;8.346;2023-03-31T13:43:31;98914.47;;;16.13;57.97
19811;BME280;10065;49.632;8.346;2023-03-31T13:46:22;98910.00;;;16.07;56.81
19811;BME280;10065;49.632;8.346;2023-03-31T13:49:03;98902.06;;;16.18;57.07
19811;BME280;10065;49.632;8.346;2023-03-31T13:51:42;98898.66;;;16.30;57.61